createdAt,value
2022-10-03T00:03:11.184Z,100.00
2022-10-03T00:08:46.805Z,100.00
2022-10-03T00:16:50.719Z,100.00
2022-10-03T00:22:18.736Z,100.00
2022-10-03T00:28:48.844Z,100.00
2022-10-03T00:34:22.713Z,100.00
2022-10-03T00:41:12.929Z,100.00
2022-10-03T00:53:32.551Z,100.00
2022-10-03T01:00:12.769Z,100.00
2022-10-03T01:06:54.021Z,100.00
2022-10-03T01:12:28.377Z,100.00
2022-10-03T01:20:58.716Z,100.00
2022-10-03T01:26:33.493Z,100.00
2022-10-03T01:31:46.547Z,100.00
2022-10-03T01:37:10.825Z,100.00
2022-10-03T01:42:20.793Z,100.00
2022-10-03T01:47:59.963Z,100.00
2022-10-03T01:53:14.414Z,100.00
2022-10-03T02:01:33.175Z,100.00
2022-10-03T02:13:27.997Z,100.00
2022-10-03T02:19:12.827Z,100.00
2022-10-03T02:25:05.307Z,100.00
2022-10-03T02:30:19.256Z,100.00
2022-10-03T02:39:31.433Z,100.00
2022-10-03T02:45:10.288Z,100.00
2022-10-03T02:54:10.075Z,100.00
2022-10-03T02:59:44.582Z,100.00
2022-10-03T03:10:54.879Z,100.00
2022-10-03T03:17:56.607Z,100.00
2022-10-03T03:24:58.610Z,100.00
2022-10-03T03:30:09.604Z,100.00
2022-10-03T03:36:43.275Z,100.00
2022-10-03T03:42:08.989Z,100.00
2022-10-03T03:50:05.951Z,100.00
2022-10-03T03:56:52.259Z,100.00
2022-10-03T04:02:41.756Z,100.00
2022-10-03T04:14:42.154Z,100.00
2022-10-03T04:27:56.771Z,100.00
2022-10-03T04:35:53.591Z,100.00
2022-10-03T04:41:10.876Z,100.00
2022-10-03T04:46:27.244Z,100.00
2022-10-03T04:51:53.375Z,100.00
2022-10-03T04:57:08.452Z,100.00
2022-10-03T05:02:38.681Z,100.00
2022-10-03T05:11:08.760Z,100.00
2022-10-03T05:16:37.456Z,100.00
2022-10-03T05:21:55.885Z,100.00
2022-10-03T05:27:06.980Z,100.00
2022-10-03T05:32:44.365Z,100.00
2022-10-03T05:41:09.556Z,100.00
2022-10-03T05:46:39.741Z,100.00
2022-10-03T05:51:57.524Z,100.00
2022-10-03T05:57:37.799Z,100.00
2022-10-03T06:03:17.303Z,100.00
2022-10-03T06:10:00.301Z,100.00
2022-10-03T06:15:30.527Z,100.00
2022-10-03T06:22:44.844Z,100.00
2022-10-03T06:33:09.622Z,100.00
2022-10-03T06:48:31.345Z,100.00
2022-10-03T07:00:49.262Z,100.00
2022-10-03T07:11:59.756Z,100.00
2022-10-03T07:17:35.371Z,100.00
2022-10-03T07:24:47.433Z,100.00
2022-10-03T07:30:16.061Z,100.00
2022-10-03T07:37:54.684Z,100.00
2022-10-03T07:46:01.490Z,100.00
2022-10-03T07:51:12.623Z,100.00
2022-10-03T07:56:49.849Z,100.00
2022-10-03T08:04:01.735Z,100.00
2022-10-03T08:10:45.089Z,100.00
2022-10-03T08:19:10.370Z,100.00
2022-10-03T08:25:42.358Z,100.00
2022-10-03T08:35:02.673Z,100.00
2022-10-03T08:47:11.233Z,100.00
2022-10-03T08:56:13.468Z,100.00
2022-10-03T09:03:31.891Z,100.00
2022-10-03T09:11:41.611Z,100.00
2022-10-03T09:20:23.827Z,100.00
2022-10-03T09:27:14.240Z,100.00
2022-10-03T09:32:56.859Z,100.00
2022-10-03T09:39:07.792Z,100.00
2022-10-03T09:48:37.764Z,100.00
2022-10-03T09:56:29.263Z,100.00
2022-10-03T10:02:14.786Z,100.00
2022-10-03T10:07:52.950Z,100.00
2022-10-03T10:16:48.551Z,100.00
2022-10-03T10:22:09.758Z,100.00
2022-10-03T10:27:47.371Z,100.00
2022-10-03T10:33:26.542Z,100.00
2022-10-03T10:44:58.090Z,100.00
2022-10-03T10:53:16.217Z,100.00
2022-10-03T10:58:57.355Z,100.00
2022-10-03T11:06:09.129Z,100.00
2022-10-03T11:12:58.057Z,100.00
2022-10-03T11:21:45.305Z,100.00
2022-10-03T11:27:33.770Z,100.00
2022-10-03T11:33:12.516Z,100.00
2022-10-03T11:38:24.017Z,100.00
2022-10-03T11:44:35.928Z,100.00
2022-10-03T11:52:33.327Z,100.00
2022-10-03T11:57:38.961Z,100.00
2022-10-03T12:03:21.777Z,100.00
2022-10-03T12:08:52.290Z,100.00
2022-10-03T12:17:31.773Z,100.00
2022-10-03T12:25:24.175Z,100.00
2022-10-03T12:30:29.572Z,100.00
2022-10-03T12:44:08.583Z,100.00
2022-10-03T12:51:17.737Z,100.00
2022-10-03T12:58:05.973Z,100.00
2022-10-03T13:03:25.555Z,100.00
2022-10-03T13:08:58.291Z,100.00
2022-10-03T13:16:26.563Z,100.00
2022-10-03T13:21:53.539Z,100.00
2022-10-03T13:27:28.300Z,100.00
2022-10-03T13:32:37.044Z,100.00
2022-10-03T13:38:18.833Z,100.00
2022-10-03T13:43:27.175Z,100.00
2022-10-03T13:48:29.457Z,100.00
2022-10-03T13:56:15.273Z,100.00
2022-10-03T14:01:40.876Z,100.00
2022-10-03T14:12:06.265Z,97.53
2022-10-03T14:22:43.225Z,97.96
2022-10-03T14:27:50.205Z,99.63
2022-10-03T14:33:03.547Z,95.65
2022-10-03T14:39:47.922Z,95.90
2022-10-03T14:44:54.938Z,96.26
2022-10-03T14:50:00.053Z,91.54
2022-10-03T14:56:23.751Z,92.24
2022-10-03T15:07:12.947Z,87.10
2022-10-03T15:12:27.680Z,87.80
2022-10-03T15:17:35.276Z,83.10
2022-10-03T15:23:02.541Z,88.67
2022-10-03T15:28:08.560Z,91.08
2022-10-03T15:33:33.009Z,90.72
2022-10-03T15:38:39.090Z,87.68
2022-10-03T15:43:56.099Z,85.97
2022-10-03T15:49:01.371Z,87.92
2022-10-03T15:54:08.255Z,91.03
2022-10-03T15:59:19.333Z,93.02
2022-10-03T16:04:37.609Z,95.53
2022-10-03T16:10:04.483Z,96.26
2022-10-03T16:15:50.465Z,94.84
2022-10-03T16:20:58.219Z,95.98
2022-10-03T16:26:05.190Z,97.14
2022-10-03T16:31:19.539Z,97.63
2022-10-03T16:36:21.016Z,100.00
2022-10-03T16:41:25.743Z,100.00
2022-10-03T16:46:33.299Z,100.00
2022-10-03T16:51:59.286Z,100.00
2022-10-03T16:57:05.083Z,100.00
2022-10-03T17:02:13.355Z,100.00
2022-10-03T17:07:23.889Z,100.00
2022-10-03T17:12:33.094Z,100.00
2022-10-03T17:19:31.221Z,100.00
2022-10-03T17:25:05.049Z,100.00
2022-10-03T17:30:22.812Z,100.00
2022-10-03T17:35:34.728Z,100.00
2022-10-03T17:44:56.168Z,100.00
2022-10-03T17:50:14.899Z,100.00
2022-10-03T17:55:39.960Z,100.00
2022-10-03T18:01:22.762Z,100.00
2022-10-03T18:06:49.557Z,100.00
2022-10-03T18:11:52.762Z,100.00
2022-10-03T18:17:13.850Z,100.00
2022-10-03T18:22:41.078Z,100.00
2022-10-03T18:28:22.182Z,100.00
2022-10-03T18:33:30.736Z,100.00
2022-10-03T18:38:35.100Z,100.00
2022-10-03T18:43:44.403Z,100.00
2022-10-03T18:55:14.234Z,100.00
2022-10-03T19:00:19.605Z,100.00
2022-10-03T19:06:17.208Z,100.00
2022-10-03T19:11:35.009Z,100.00
2022-10-03T19:18:37.381Z,100.00
2022-10-03T19:23:42.011Z,100.00
2022-10-03T19:28:48.940Z,100.00
2022-10-03T19:33:52.781Z,100.00
2022-10-03T19:38:54.224Z,100.00
2022-10-03T19:44:00.999Z,100.00
2022-10-03T19:50:53.930Z,100.00
2022-10-03T19:55:54.820Z,100.00
2022-10-03T20:00:58.158Z,100.00
2022-10-03T20:09:31.889Z,100.00
2022-10-03T20:14:34.843Z,100.00
2022-10-03T20:19:54.171Z,100.00
2022-10-03T20:24:55.125Z,100.00
2022-10-03T20:30:56.642Z,100.00
2022-10-03T20:36:16.807Z,100.00
2022-10-03T20:41:38.923Z,100.00
2022-10-03T20:46:53.948Z,100.00
2022-10-03T20:52:01.581Z,100.00
2022-10-03T20:57:14.782Z,100.00
2022-10-03T21:02:29.159Z,100.00
2022-10-03T21:07:53.775Z,100.00
2022-10-03T21:12:59.773Z,100.00
2022-10-03T21:18:01.526Z,100.00
2022-10-03T21:23:13.823Z,100.00
2022-10-03T21:28:28.711Z,100.00
2022-10-03T21:33:38.231Z,100.00
2022-10-03T21:38:42.525Z,100.00
2022-10-03T21:43:49.710Z,100.00
2022-10-03T21:49:50.670Z,100.00
2022-10-03T21:58:10.238Z,100.00
2022-10-03T22:03:29.634Z,100.00
2022-10-03T22:08:34.726Z,100.00
2022-10-03T22:13:38.166Z,100.00
2022-10-03T22:19:15.474Z,100.00
2022-10-03T22:24:28.956Z,100.00
2022-10-03T22:30:03.419Z,100.00
2022-10-03T22:35:51.757Z,100.00
2022-10-03T22:40:54.955Z,100.00
2022-10-03T22:45:56.814Z,100.00
2022-10-03T22:50:59.167Z,100.00
2022-10-03T22:56:30.617Z,100.00
2022-10-03T23:01:34.451Z,100.00
2022-10-03T23:07:01.791Z,100.00
2022-10-03T23:12:03.453Z,100.00
2022-10-03T23:21:33.247Z,100.00
2022-10-03T23:29:33.161Z,100.00
2022-10-03T23:34:45.619Z,100.00
2022-10-03T23:40:47.119Z,100.00
2022-10-03T23:45:51.111Z,100.00
2022-10-03T23:51:05.681Z,100.00
2022-10-03T23:59:38.763Z,100.00
